Time;durP1;ratioP1;P1;durP2;ratioP2;P2;SDS_P1;SDS_P2;PMS_P1;PMS_P2;Temp;Humidity;BMP_temperature;BMP_pressure;BME280_temperature;BME280_humidity;BME280_pressure;Samples;Min_cycle;Max_cycle;Signal;HPM_P1;HPM_P2
2023/01/04 00:00:30;;;;;;;10.60;3.45;;;;;;;7.98;72.98;101472.19;10395154;28;20076;-62
2023/01/04 00:05:32;;;;;;;10.65;3.70;;;;;;;8.02;72.91;101472.78;10402382;28;20058;-61
2023/01/04 00:10:34;;;;;;;7.55;3.88;;;;;;;8.07;72.96;101473.22;10388702;28;20039;-62
2023/01/04 00:15:35;;;;;;;12.48;4.15;;;;;;;8.17;72.85;101478.63;10367635;28;20532;-61
2023/01/04 00:20:37;;;;;;;10.48;5.07;;;;;;;8.16;73.07;101467.06;10389093;28;20042;-61
2023/01/04 00:25:38;;;;;;;8.43;4.50;;;;;;;8.16;73.08;101463.56;10400171;28;20053;-60
2023/01/04 00:30:40;;;;;;;11.18;4.25;;;;;;;8.15;73.58;101454.66;10397118;28;20108;-61
2023/01/04 00:35:42;;;;;;;13.05;5.82;;;;;;;8.13;73.59;101452.09;10388995;28;20097;-60
2023/01/04 00:40:46;;;;;;;12.95;5.00;;;;;;;8.14;73.34;101436.91;10388613;28;20066;-60
2023/01/04 00:45:48;;;;;;;12.15;5.93;;;;;;;8.20;73.49;101438.19;10363458;28;20112;-63
2023/01/04 00:50:50;;;;;;;14.05;5.13;;;;;;;8.14;73.54;101427.03;10377671;28;20053;-59
2023/01/04 00:55:51;;;;;;;12.73;6.30;;;;;;;8.14;73.10;101431.53;10367187;28;20050;-64
2023/01/04 01:00:53;;;;;;;10.98;4.90;;;;;;;8.10;73.12;101414.88;10395461;28;20826;-60
2023/01/04 01:05:54;;;;;;;13.02;5.53;;;;;;;8.14;73.25;101399.41;10395327;28;20053;-61
2023/01/04 01:11:05;;;;;;;12.13;7.07;;;;;;;8.11;73.21;101399.66;10371765;28;20068;-61
2023/01/04 01:16:09;;;;;;;11.73;5.43;;;;;;;8.13;73.39;101386.97;10387418;28;20085;-63
2023/01/04 01:21:14;;;;;;;12.60;6.90;;;;;;;8.05;74.20;101384.13;10395290;28;20057;-60
2023/01/04 01:26:18;;;;;;;14.18;7.22;;;;;;;8.05;74.06;101384.13;10389628;28;20053;-60
2023/01/04 01:31:22;;;;;;;15.73;7.40;;;;;;;8.02;74.10;101387.94;10388220;28;20049;-64
2023/01/04 01:36:25;;;;;;;12.85;7.00;;;;;;;8.01;74.14;101378.19;10405056;28;20109;-61
2023/01/04 01:41:29;;;;;;;13.35;6.90;;;;;;;8.05;73.93;101371.56;10405399;28;20189;-61
2023/01/04 01:46:39;;;;;;;12.88;7.38;;;;;;;8.06;74.27;101370.59;10401823;28;20061;-60
2023/01/04 01:51:41;;;;;;;13.15;6.32;;;;;;;8.09;73.58;101346.22;10387852;28;20047;-61
2023/01/04 01:56:48;;;;;;;14.73;8.32;;;;;;;8.02;74.26;101354.97;10387874;28;20049;-59
2023/01/04 02:01:49;;;;;;;14.43;7.38;;;;;;;8.06;74.11;101359.91;10393505;28;20085;-60
2023/01/04 02:06:54;;;;;;;13.25;7.50;;;;;;;8.02;74.04;101346.94;10374390;28;20053;-59
2023/01/04 02:11:55;;;;;;;17.08;8.30;;;;;;;7.95;74.07;101341.25;10390702;28;20077;-63
2023/01/04 02:17:24;;;;;;;15.60;7.28;;;;;;;7.88;74.85;101334.75;10390960;28;20069;-61
2023/01/04 02:22:53;;;;;;;17.20;8.18;;;;;;;7.86;74.92;101331.31;10369261;28;20049;-59
2023/01/04 02:27:59;;;;;;;15.48;7.10;;;;;;;7.94;74.04;101326.19;10380630;28;20081;-59
2023/01/04 02:33:09;;;;;;;18.52;7.50;;;;;;;8.02;73.87;101321.00;10392016;28;20041;-60
2023/01/04 02:38:22;;;;;;;14.32;6.95;;;;;;;8.03;74.24;101306.59;10390503;28;20050;-60
2023/01/04 02:54:29;;;;;;;14.57;7.13;;;;;;;8.25;74.13;101300.19;10382991;28;20041;-60
2023/01/04 02:59:36;;;;;;;11.30;6.10;;;;;;;8.19;74.39;101283.81;10390721;28;20496;-60
2023/01/04 03:10:34;;;;;;;10.75;6.03;;;;;;;8.29;74.03;101273.97;10407813;28;20092;-61
2023/01/04 03:15:39;;;;;;;9.50;5.80;;;;;;;8.28;74.40;101264.25;10374313;28;20052;-61
2023/01/04 03:20:44;;;;;;;10.65;6.93;;;;;;;8.25;73.81;101272.56;10381970;28;20113;-61
2023/01/04 03:36:57;;;;;;;15.18;7.18;;;;;;;8.25;74.09;101238.56;10404138;28;20060;-62
2023/01/04 03:53:06;;;;;;;14.50;6.13;;;;;;;7.88;75.48;101216.97;10411300;28;20089;-66
2023/01/04 03:58:08;;;;;;;15.50;7.38;;;;;;;7.81;75.68;101199.75;10426295;28;20034;-67
2023/01/04 04:03:09;;;;;;;11.90;6.53;;;;;;;7.81;75.71;101197.06;10393027;28;20033;-67
2023/01/04 04:08:29;;;;;;;16.92;8.38;;;;;;;7.74;75.84;101186.06;10426039;28;20037;-63
2023/01/04 04:13:30;;;;;;;15.25;8.13;;;;;;;7.67;76.02;101168.88;10423214;28;20056;-65
2023/01/04 04:18:32;;;;;;;18.33;8.00;;;;;;;7.58;76.54;101167.00;10417782;28;20045;-65
2023/01/04 04:23:33;;;;;;;18.55;9.80;;;;;;;7.49;76.59;101166.84;10406213;28;20579;-64
2023/01/04 04:28:35;;;;;;;15.50;9.00;;;;;;;7.49;76.97;101147.28;10406905;28;20111;-61
2023/01/04 04:33:36;;;;;;;16.30;8.65;;;;;;;7.35;77.64;101145.81;10382040;28;20049;-60
2023/01/04 04:38:37;;;;;;;20.67;9.23;;;;;;;7.39;76.97;101133.03;10393771;28;20077;-61
2023/01/04 04:43:39;;;;;;;21.00;10.27;;;;;;;7.39;78.03;101136.53;10376999;28;20112;-62
2023/01/04 04:48:40;;;;;;;15.57;9.15;;;;;;;7.37;78.10;101124.28;10361122;28;20050;-58
2023/01/04 04:53:42;;;;;;;17.20;8.68;;;;;;;7.38;78.31;101120.63;10377771;28;20100;-60
2023/01/04 04:58:43;;;;;;;14.52;7.88;;;;;;;7.32;78.10;101103.28;10380858;28;20069;-59
2023/01/04 05:03:45;;;;;;;18.45;7.82;;;;;;;7.29;78.42;101100.91;10374133;28;20038;-60
2023/01/04 05:08:46;;;;;;;11.88;7.50;;;;;;;7.29;79.30;101087.53;10364686;28;20061;-60
2023/01/04 05:13:48;;;;;;;12.48;6.88;;;;;;;7.29;78.82;101087.53;10393514;28;20042;-61
2023/01/04 05:18:49;;;;;;;13.90;8.00;;;;;;;7.29;79.13;101072.31;10399818;28;20577;-59
2023/01/04 05:23:50;;;;;;;13.82;7.85;;;;;;;7.30;78.64;101079.34;10387115;28;20046;-60
2023/01/04 05:28:52;;;;;;;12.65;7.05;;;;;;;7.30;79.39;101079.34;10395894;28;20041;-59
2023/01/04 05:33:54;;;;;;;11.55;7.00;;;;;;;7.35;79.14;101060.25;10393398;28;20042;-59
2023/01/04 05:38:55;;;;;;;13.35;6.63;;;;;;;7.37;78.23;101057.44;10389609;28;20081;-61
2023/01/04 05:43:57;;;;;;;13.30;7.18;;;;;;;7.43;78.87;101048.84;10367089;28;20681;-63
2023/01/04 05:48:58;;;;;;;16.45;8.52;;;;;;;7.40;78.49;101046.44;10383229;28;20049;-61
2023/01/04 05:54:00;;;;;;;13.45;7.95;;;;;;;7.43;78.43;101048.84;10392337;28;20050;-59
2023/01/04 05:59:01;;;;;;;13.90;6.55;;;;;;;7.43;79.23;101048.84;10380637;28;20053;-61
2023/01/04 06:04:02;;;;;;;13.38;8.30;;;;;;;7.51;79.13;101040.97;10387769;28;20049;-59
2023/01/04 06:09:04;;;;;;;13.20;6.57;;;;;;;7.53;79.14;101031.81;10378528;28;20089;-62
2023/01/04 06:14:05;;;;;;;12.60;6.25;;;;;;;7.49;78.87;101040.28;10386737;28;20112;-59
2023/01/04 06:19:07;;;;;;;13.10;7.22;;;;;;;7.56;78.85;101046.75;10365291;28;20069;-58
2023/01/04 06:24:10;;;;;;;16.10;7.30;;;;;;;7.56;78.68;101052.09;10375399;28;20065;-60
2023/01/04 06:29:12;;;;;;;13.07;8.13;;;;;;;7.51;78.69;101028.44;10369658;28;20045;-60
2023/01/04 06:34:13;;;;;;;11.95;7.10;;;;;;;7.53;79.09;101026.47;10361624;28;20049;-60
2023/01/04 06:39:15;;;;;;;13.25;7.28;;;;;;;7.45;79.61;100996.06;10364346;28;20049;-59
2023/01/04 06:44:16;;;;;;;15.13;6.68;;;;;;;7.36;78.56;101005.75;10371841;28;20153;-61
2023/01/04 06:49:17;;;;;;;12.80;6.80;;;;;;;7.32;79.40;100991.81;10376040;28;20053;-59
2023/01/04 06:54:19;;;;;;;13.68;7.07;;;;;;;7.30;78.81;100963.53;10371224;28;20054;-59
2023/01/04 06:59:20;;;;;;;14.95;7.90;;;;;;;7.26;79.26;100968.28;10377967;28;20053;-59
2023/01/04 07:04:22;;;;;;;13.48;6.95;;;;;;;7.25;79.31;100974.66;10373140;28;20058;-58
2023/01/04 07:09:23;;;;;;;16.20;8.32;;;;;;;7.30;79.74;100991.09;10374462;28;20065;-60
2023/01/04 07:14:24;;;;;;;16.70;7.18;;;;;;;7.32;78.95;100993.66;10383235;28;20108;-58
2023/01/04 07:19:26;;;;;;;17.45;8.23;;;;;;;7.40;78.84;100977.75;10375793;28;20049;-59
2023/01/04 07:24:28;;;;;;;15.95;7.40;;;;;;;7.43;79.25;100973.97;10412903;28;20049;-58
2023/01/04 07:29:31;;;;;;;14.75;8.02;;;;;;;7.50;78.90;100986.63;10452371;28;20050;-58
2023/01/04 07:34:32;;;;;;;15.65;7.03;;;;;;;7.60;79.00;100983.94;10449941;28;20053;-59
2023/01/04 07:39:34;;;;;;;16.77;7.47;;;;;;;7.64;78.89;100974.66;10447853;28;20076;-58
2023/01/04 07:44:35;;;;;;;20.52;7.03;;;;;;;7.73;79.05;100963.09;10447457;28;20049;-59
2023/01/04 07:49:37;;;;;;;15.15;7.40;;;;;;;7.79;78.93;100964.38;10435771;28;20042;-60
2023/01/04 07:54:38;;;;;;;12.95;6.10;;;;;;;7.84;79.06;100991.56;10428651;28;20045;-65
2023/01/04 07:59:40;;;;;;;12.77;6.07;;;;;;;7.89;79.41;100991.97;10400166;28;20054;-65
2023/01/04 08:04:41;;;;;;;14.60;6.32;;;;;;;7.97;79.00;100993.09;10410265;28;20042;-65
2023/01/04 08:09:43;;;;;;;12.82;5.57;;;;;;;8.04;78.81;101005.75;10419782;28;20050;-65
2023/01/04 08:14:44;;;;;;;14.10;5.65;;;;;;;8.12;78.65;100997.00;10409347;28;20046;-65
2023/01/04 08:19:45;;;;;;;12.55;5.03;;;;;;;8.19;79.10;100973.16;10406934;28;20049;-65
2023/01/04 08:24:47;;;;;;;15.55;6.03;;;;;;;8.24;78.26;100986.97;10419556;28;20045;-65
2023/01/04 08:29:48;;;;;;;8.77;5.10;;;;;;;8.32;77.98;100976.38;10413784;28;20060;-65
2023/01/04 08:34:50;;;;;;;8.75;4.57;;;;;;;8.41;78.72;100974.63;10417447;28;20041;-67
2023/01/04 08:39:51;;;;;;;10.05;4.13;;;;;;;8.44;78.25;100991.31;10416128;28;20037;-67
2023/01/04 08:44:52;;;;;;;8.45;3.85;;;;;;;8.51;78.66;100970.13;10397202;28;20093;-66
2023/01/04 08:50:00;;;;;;;7.07;3.83;;;;;;;8.62;78.08;100979.81;10403453;28;20058;-68
2023/01/04 08:55:10;;;;;;;8.07;3.85;;;;;;;8.68;77.90;100949.75;10418630;28;20045;-67
2023/01/04 09:00:17;;;;;;;7.80;2.85;;;;;;;8.75;77.66;100961.56;10414671;28;20046;-66
2023/01/04 09:05:18;;;;;;;7.25;3.28;;;;;;;8.82;77.75;100967.16;10418858;28;20064;-66
2023/01/04 09:10:23;;;;;;;8.23;3.25;;;;;;;8.85;77.57;100970.41;10408015;28;20049;-68
2023/01/04 09:15:25;;;;;;;5.68;2.67;;;;;;;8.92;77.96;100955.38;10420861;28;20038;-68
2023/01/04 09:20:26;;;;;;;7.30;3.40;;;;;;;8.97;77.68;100954.13;10420732;28;20034;-67
2023/01/04 09:25:27;;;;;;;6.93;3.13;;;;;;;8.95;77.58;100938.16;10424473;28;20049;-69
2023/01/04 09:30:30;;;;;;;7.32;2.67;;;;;;;8.96;77.54;100939.00;10427235;28;20443;-67
2023/01/04 09:35:32;;;;;;;6.18;3.10;;;;;;;8.98;77.83;100945.06;10424072;28;20038;-67
2023/01/04 09:40:49;;;;;;;8.57;3.45;;;;;;;9.05;77.20;100938.94;10411579;28;20057;-67
2023/01/04 09:45:56;;;;;;;6.55;2.80;;;;;;;9.08;77.21;100953.88;10416954;28;20053;-67
2023/01/04 09:51:03;;;;;;;6.07;2.15;;;;;;;9.15;77.29;100951.44;10403864;28;20040;-66
2023/01/04 09:56:12;;;;;;;6.90;2.60;;;;;;;9.16;77.24;100956.66;10415108;28;20029;-66
2023/01/04 10:01:19;;;;;;;5.53;2.40;;;;;;;9.17;77.33;100946.78;10412820;28;20076;-67
2023/01/04 10:06:20;;;;;;;5.63;2.95;;;;;;;9.16;77.69;100951.28;10408534;28;20038;-67
2023/01/04 10:11:47;;;;;;;6.13;3.00;;;;;;;9.22;77.40;100941.78;10425735;28;20041;-68
2023/01/04 10:17:04;;;;;;;6.32;2.67;;;;;;;9.40;77.00;100936.41;10415334;28;20033;-68
2023/01/04 10:22:44;;;;;;;3.55;1.95;;;;;;;9.49;77.02;100927.44;10415088;28;20102;-68
2023/01/04 10:28:10;;;;;;;5.00;2.20;;;;;;;9.53;77.14;100915.41;10411947;28;20044;-66
2023/01/04 10:33:37;;;;;;;2.80;1.63;;;;;;;9.65;77.11;100878.44;10415924;28;20052;-66
2023/01/04 10:38:39;;;;;;;2.38;1.35;;;;;;;9.78;76.97;100884.22;10417302;28;20038;-65
2023/01/04 10:43:54;;;;;;;5.93;1.20;;;;;;;9.89;76.78;100875.06;10425069;28;20053;-66
2023/01/04 10:49:26;;;;;;;3.88;1.10;;;;;;;9.99;76.85;100889.25;10416362;28;20033;-65
2023/01/04 10:54:37;;;;;;;4.25;1.27;;;;;;;10.12;76.79;100870.81;10413813;28;20029;-66
2023/01/04 11:00:05;;;;;;;2.28;1.05;;;;;;;10.09;76.90;100872.97;10404903;28;20046;-67
2023/01/04 11:05:36;;;;;;;5.78;1.30;;;;;;;10.03;76.96;100858.38;10425105;28;20244;-67
2023/01/04 11:10:49;;;;;;;1.90;1.25;;;;;;;10.04;77.13;100854.66;10407897;28;20058;-66
2023/01/04 11:15:51;;;;;;;3.90;1.55;;;;;;;10.08;77.19;100850.66;10408173;28;20059;-67
2023/01/04 11:20:53;;;;;;;3.45;1.63;;;;;;;10.05;77.18;100855.50;10416969;28;20046;-67
2023/01/04 11:25:58;;;;;;;3.45;1.35;;;;;;;10.08;76.98;100839.06;10400871;28;20042;-67
2023/01/04 11:31:09;;;;;;;2.33;1.48;;;;;;;10.16;76.90;100833.75;10426561;28;20034;-68
2023/01/04 11:36:30;;;;;;;2.10;1.30;;;;;;;10.26;76.95;100809.44;10412102;28;20053;-66
2023/01/04 11:41:32;;;;;;;2.08;1.05;;;;;;;10.31;76.96;100815.22;10426962;28;20037;-67
2023/01/04 11:46:34;;;;;;;4.10;2.25;;;;;;;10.39;76.84;100809.84;10417364;28;20049;-68
2023/01/04 11:51:38;;;;;;;1.27;0.75;;;;;;;10.45;76.79;100806.50;10430834;28;20061;-68
2023/01/04 11:57:01;;;;;;;2.88;0.88;;;;;;;10.52;76.28;100802.16;10423258;28;20067;-68
2023/01/04 12:02:23;;;;;;;3.25;1.10;;;;;;;10.59;76.49;100788.06;10412638;28;20030;-67
2023/01/04 12:07:45;;;;;;;4.97;1.20;;;;;;;10.70;76.44;100783.22;10390272;28;20339;-69
2023/01/04 12:12:47;;;;;;;3.72;0.85;;;;;;;10.78;75.94;100777.00;10416685;28;20038;-67
2023/01/04 12:17:54;;;;;;;2.25;0.85;;;;;;;10.81;76.27;100770.44;10401302;28;20057;-67
2023/01/04 12:22:55;;;;;;;1.95;0.95;;;;;;;10.86;76.23;100760.88;10420116;28;20057;-67
2023/01/04 12:27:57;;;;;;;3.53;0.75;;;;;;;10.96;76.17;100767.91;10420018;28;20033;-68
2023/01/04 12:32:58;;;;;;;2.25;0.75;;;;;;;10.95;76.02;100752.78;10513624;22;20049;-90
2023/01/04 12:38:01;;;;;;;2.90;0.70;;;;;;;10.79;76.45;100737.50;10392021;28;20077;-89
2023/01/04 12:43:26;;;;;;;3.10;0.93;;;;;;;10.58;76.83;100741.50;10351858;28;20046;-93
2023/01/04 12:54:31;;;;;;;1.40;0.80;;;;;;;10.47;77.35;100728.41;10360983;28;20080;-91
2023/01/04 13:00:00;;;;;;;1.90;1.08;;;;;;;10.46;77.07;100708.72;10359359;28;20130;-92
2023/01/04 13:05:38;;;;;;;2.70;1.15;;;;;;;10.47;77.26;100705.03;10363286;28;20073;-93
2023/01/04 13:11:14;;;;;;;1.65;0.70;;;;;;;10.57;77.27;100699.50;10358960;28;20053;-89
2023/01/04 13:16:57;;;;;;;1.05;0.60;;;;;;;10.62;77.37;100686.38;10342183;28;20050;-91
2023/01/04 13:21:59;;;;;;;6.25;0.90;;;;;;;10.62;78.13;100677.50;10327464;28;20057;-90
2023/01/04 13:27:17;;;;;;;1.92;0.90;;;;;;;10.69;77.54;100676.66;10351286;28;20054;-91
2023/01/04 13:32:51;;;;;;;4.68;0.98;;;;;;;10.76;77.61;100659.84;10347463;28;20551;-91
2023/01/04 13:38:16;;;;;;;3.15;1.05;;;;;;;10.85;77.80;100659.66;10328448;28;20101;-89
2023/01/04 13:43:51;;;;;;;1.23;0.90;;;;;;;10.95;77.34;100647.91;10350651;28;20050;-89
2023/01/04 13:49:14;;;;;;;3.13;1.00;;;;;;;11.02;77.70;100641.66;10333158;28;20077;-88
2023/01/04 13:54:24;;;;;;;5.38;1.23;;;;;;;11.12;77.17;100646.84;10362299;28;20041;-89
2023/01/04 13:59:36;;;;;;;4.10;1.63;;;;;;;11.18;76.98;100646.16;10338060;28;20400;-89
2023/01/04 14:04:41;;;;;;;2.65;1.00;;;;;;;11.18;76.94;100638.09;10347167;28;20050;-88
2023/01/04 14:09:50;;;;;;;3.05;0.75;;;;;;;11.24;76.69;100617.72;10359801;28;20499;-89
2023/01/04 14:14:56;;;;;;;3.67;0.80;;;;;;;11.29;77.10;100618.03;10320069;28;20051;-88
2023/01/04 14:20:14;;;;;;;7.40;1.83;;;;;;;11.33;76.92;100624.72;10320520;28;20096;-88
2023/01/04 14:25:37;;;;;;;70.20;11.95;;;;;;;11.37;76.39;100623.38;10341795;28;20100;-87
2023/01/04 14:30:39;;;;;;;3.58;0.98;;;;;;;11.44;76.60;100615.44;10320789;28;20064;-88
2023/01/04 14:35:40;;;;;;;2.95;0.82;;;;;;;11.51;76.00;100621.78;10317852;28;20137;-87
2023/01/04 14:40:49;;;;;;;1.20;0.60;;;;;;;11.52;76.10;100626.19;10323034;28;20058;-87
2023/01/04 14:45:51;;;;;;;1.42;0.70;;;;;;;11.60;75.98;100615.38;10331796;28;20138;-88
2023/01/04 14:50:55;;;;;;;0.82;0.63;;;;;;;11.63;75.77;100617.72;10336532;28;20071;-87
2023/01/04 14:55:57;;;;;;;2.38;0.50;;;;;;;11.65;75.97;100625.59;10348803;28;20049;-88
2023/01/04 15:01:01;;;;;;;1.80;0.80;;;;;;;11.72;75.56;100605.03;10349422;28;20061;-88
2023/01/04 15:06:04;;;;;;;1.30;0.68;;;;;;;11.78;75.60;100609.72;10342934;28;20559;-88
2023/01/04 15:11:06;;;;;;;0.60;0.50;;;;;;;11.81;75.54;100617.44;10358845;28;20133;-88
2023/01/04 15:16:13;;;;;;;2.25;0.52;;;;;;;11.80;75.07;100621.13;10353849;28;20053;-88
2023/01/04 15:21:15;;;;;;;0.40;0.40;;;;;;;11.83;75.19;100617.28;10356803;28;20054;-88
2023/01/04 15:26:17;;;;;;;1.30;0.47;;;;;;;11.87;75.12;100610.50;10344870;28;20041;-86
2023/01/04 15:31:23;;;;;;;0.70;0.40;;;;;;;11.84;75.34;100590.13;10360163;28;20072;-89
2023/01/04 15:36:39;;;;;;;2.15;0.40;;;;;;;11.79;75.46;100592.53;10382950;28;20068;-86
2023/01/04 15:47:02;;;;;;;1.58;0.40;;;;;;;11.81;74.92;100589.66;10357919;28;20046;-86
2023/01/04 15:52:04;;;;;;;1.42;0.60;;;;;;;11.81;74.93;100566.28;10353301;28;20050;-87
2023/01/04 15:57:06;;;;;;;1.15;0.47;;;;;;;11.77;75.40;100596.41;10352750;28;20069;-87
2023/01/04 16:02:10;;;;;;;0.60;0.30;;;;;;;11.78;75.30;100592.72;10345353;28;20042;-86
2023/01/04 16:07:12;;;;;;;0.50;0.38;;;;;;;11.76;75.56;100575.91;10362041;28;20499;-86
2023/01/04 16:17:33;;;;;;;1.17;0.50;;;;;;;11.79;75.17;100559.38;10350507;28;20066;-86
2023/01/04 16:22:35;;;;;;;2.88;0.55;;;;;;;11.77;74.93;100561.41;10359432;28;20049;-86
2023/01/04 16:27:38;;;;;;;0.52;0.40;;;;;;;11.78;75.01;100558.53;10335315;28;20057;-86
2023/01/04 16:32:42;;;;;;;1.27;0.57;;;;;;;11.76;75.00;100544.41;10348531;28;20061;-85
2023/01/04 16:37:45;;;;;;;0.82;0.60;;;;;;;11.71;75.23;100534.19;10331115;28;20050;-86
2023/01/04 16:42:50;;;;;;;0.85;0.40;;;;;;;11.83;74.96;100552.63;10344524;28;20065;-87
2023/01/04 16:47:52;;;;;;;0.60;0.30;;;;;;;11.82;75.08;100557.16;10345488;28;20074;-85
2023/01/04 16:52:54;;;;;;;2.38;0.40;;;;;;;11.82;74.98;100557.16;10331020;28;20046;-86
2023/01/04 16:57:56;;;;;;;0.50;0.30;;;;;;;11.88;74.55;100547.53;10343342;28;20133;-88
2023/01/04 17:02:57;;;;;;;1.70;0.30;;;;;;;11.94;74.90;100541.44;10325824;28;20045;-87
2023/01/04 17:07:59;;;;;;;0.88;0.55;;;;;;;12.00;74.72;100556.88;10347371;28;20057;-86
2023/01/04 17:13:00;;;;;;;0.47;0.30;;;;;;;12.03;74.75;100559.22;10355401;28;20050;-86
2023/01/04 17:18:02;;;;;;;3.40;0.50;;;;;;;12.09;74.92;100555.81;10348676;28;20065;-87
2023/01/04 17:23:04;;;;;;;1.65;0.30;;;;;;;11.99;75.09;100552.53;10329074;28;20049;-88
2023/01/04 17:28:05;;;;;;;0.70;0.40;;;;;;;12.00;74.73;100556.06;10330903;28;20064;-86
2023/01/04 17:33:07;;;;;;;0.50;0.40;;;;;;;11.98;75.05;100534.69;10327562;28;20058;-87
2023/01/04 17:38:08;;;;;;;1.38;0.65;;;;;;;12.06;74.82;100528.38;10320005;28;20085;-88
2023/01/04 17:43:10;;;;;;;1.00;0.43;;;;;;;12.01;75.07;100533.50;10332560;28;20098;-86
2023/01/04 17:48:12;;;;;;;3.65;0.55;;;;;;;12.04;74.89;100527.72;10324029;28;20048;-89
2023/01/04 17:53:13;;;;;;;2.55;0.40;;;;;;;12.00;75.06;100535.34;10338396;28;20066;-89
2023/01/04 17:58:15;;;;;;;1.48;0.40;;;;;;;12.05;75.42;100532.94;10321685;28;20136;-89
2023/01/04 18:03:24;;;;;;;1.05;0.30;;;;;;;12.09;74.93;100530.72;10367632;23;20054;-65
2023/01/04 18:08:25;;;;;;;1.20;0.82;;;;;;;12.09;75.07;100526.16;10368124;28;20042;-62
2023/01/04 18:13:27;;;;;;;1.48;0.55;;;;;;;12.14;75.20;100522.91;10361874;28;20469;-64
2023/01/04 18:18:28;;;;;;;2.80;0.70;;;;;;;12.21;74.74;100518.50;10358268;28;20061;-65
2023/01/04 18:23:30;;;;;;;0.73;0.38;;;;;;;12.17;75.28;100521.75;10383501;28;20084;-65
2023/01/04 18:28:33;;;;;;;2.08;0.32;;;;;;;12.09;75.20;100511.88;10368893;28;20050;-63
2023/01/04 18:33:34;;;;;;;0.65;0.50;;;;;;;12.04;75.84;100517.78;10361653;28;20100;-65
2023/01/04 18:38:37;;;;;;;0.40;0.30;;;;;;;12.01;75.45;100512.78;10370412;28;20501;-62
2023/01/04 18:43:38;;;;;;;0.57;0.30;;;;;;;11.96;75.75;100519.72;10367894;28;20042;-63
2023/01/04 18:48:58;;;;;;;0.88;0.40;;;;;;;11.91;76.07;100512.19;10376877;28;20047;-63
2023/01/04 18:54:00;;;;;;;1.70;0.50;;;;;;;11.82;76.36;100532.09;10382275;28;20050;-63
2023/01/04 18:59:01;;;;;;;0.88;0.40;;;;;;;11.79;76.31;100509.06;10362521;28;20130;-64
2023/01/04 19:04:03;;;;;;;2.15;0.65;;;;;;;11.77;76.76;100512.91;10373706;28;20085;-62
2023/01/04 19:09:05;;;;;;;1.35;0.60;;;;;;;11.80;77.15;100526.88;10359658;28;20050;-65
2023/01/04 19:14:07;;;;;;;0.98;0.50;;;;;;;11.80;77.01;100526.03;10379861;28;20082;-67
2023/01/04 19:19:09;;;;;;;1.08;0.70;;;;;;;11.74;76.91;100529.47;10385301;28;20046;-70
2023/01/04 19:24:11;;;;;;;2.83;0.70;;;;;;;11.75;77.47;100514.97;10376870;28;20055;-68
2023/01/04 19:29:12;;;;;;;0.82;0.50;;;;;;;11.82;76.95;100519.44;10376241;28;20523;-64
2023/01/04 19:34:14;;;;;;;2.47;0.50;;;;;;;11.91;77.02;100525.66;10396645;28;20046;-68
2023/01/04 19:39:15;;;;;;;2.03;0.50;;;;;;;11.99;76.92;100524.75;10399488;28;20050;-66
2023/01/04 19:44:16;;;;;;;1.92;0.85;;;;;;;12.04;76.97;100508.88;10400842;28;20038;-66
2023/01/04 19:49:18;;;;;;;1.13;0.40;;;;;;;12.02;77.31;100509.03;10397108;28;20042;-67
2023/01/04 19:54:19;;;;;;;0.88;0.45;;;;;;;12.03;77.35;100521.50;10401248;28;20062;-67
2023/01/04 19:59:26;;;;;;;1.23;0.40;;;;;;;12.06;77.35;100531.91;10403225;28;20026;-69
2023/01/04 20:04:27;;;;;;;0.82;0.50;;;;;;;12.06;77.57;100526.53;10443642;23;20049;-88
2023/01/04 20:09:33;;;;;;;2.45;0.32;;;;;;;11.97;77.98;100546.50;10417306;28;20082;-88
2023/01/04 20:14:35;;;;;;;0.40;0.30;;;;;;;11.85;77.98;100534.44;10397897;28;20900;-90
2023/01/04 20:19:36;;;;;;;1.05;0.30;;;;;;;11.75;78.48;100510.44;10394411;28;20137;-89
2023/01/04 20:24:38;;;;;;;1.67;0.88;;;;;;;11.66;79.16;100536.56;10403308;28;20077;-90
2023/01/04 20:29:40;;;;;;;1.88;0.75;;;;;;;11.58;79.48;100568.94;10402581;28;20056;-89
2023/01/04 20:34:42;;;;;;;3.92;0.80;;;;;;;11.58;79.54;100568.09;10408165;28;20026;-88
2023/01/04 20:39:44;;;;;;;1.60;0.90;;;;;;;11.54;79.76;100562.22;10417316;28;20030;-90
2023/01/04 20:44:46;;;;;;;2.67;0.80;;;;;;;11.57;79.42;100561.88;10408595;28;20093;-92
2023/01/04 20:49:48;;;;;;;2.00;1.10;;;;;;;11.59;79.43;100530.22;10405784;28;20037;-89
2023/01/04 20:54:49;;;;;;;0.80;0.57;;;;;;;11.54;79.40;100554.16;10397077;28;20049;-88
2023/01/04 20:59:51;;;;;;;0.93;0.73;;;;;;;11.55;79.68;100519.97;10417633;28;20045;-88
2023/01/04 21:04:53;;;;;;;1.20;1.00;;;;;;;11.59;79.88;100537.44;10399717;28;20677;-89
2023/01/04 21:09:54;;;;;;;1.15;1.05;;;;;;;11.66;79.85;100520.41;10395311;28;20049;-89
2023/01/04 21:14:58;;;;;;;5.13;1.95;;;;;;;11.71;79.37;100520.72;10398678;28;20080;-89
2023/01/04 21:20:00;;;;;;;1.40;0.93;;;;;;;11.71;79.61;100515.34;10393478;28;20046;-89
2023/01/04 21:25:02;;;;;;;1.05;0.85;;;;;;;11.70;79.81;100523.59;10394536;28;20187;-88
2023/01/04 21:30:04;;;;;;;1.17;0.82;;;;;;;11.75;79.57;100517.66;10402607;28;20124;-89
2023/01/04 21:35:06;;;;;;;0.70;0.60;;;;;;;11.75;79.64;100510.44;10397752;28;20050;-90
2023/01/04 21:40:09;;;;;;;0.40;0.40;;;;;;;11.79;79.54;100506.38;10418551;28;20057;-88
2023/01/04 21:45:10;;;;;;;1.75;0.50;;;;;;;11.85;79.80;100499.41;10398089;28;20507;-89
2023/01/04 21:50:12;;;;;;;0.70;0.50;;;;;;;11.96;79.64;100501.69;10400433;28;20089;-90
2023/01/04 21:55:19;;;;;;;0.60;0.40;;;;;;;11.99;79.05;100497.81;10390142;28;20045;-92
2023/01/04 22:00:33;;;;;;;0.50;0.40;;;;;;;12.00;79.22;100491.41;10404448;28;20057;-92
2023/01/04 22:05:38;;;;;;;1.35;0.50;;;;;;;12.05;79.44;100489.84;10410597;28;20062;-92
2023/01/04 22:10:53;;;;;;;1.15;0.60;;;;;;;12.11;79.13;100490.97;10400046;28;20042;-92
2023/01/04 22:15:56;;;;;;;0.70;0.50;;;;;;;12.16;78.89;100479.63;10401605;23;20056;-62
2023/01/04 22:21:06;;;;;;;0.50;0.38;;;;;;;12.13;79.05;100482.72;10367753;28;20050;-64
2023/01/04 22:26:07;;;;;;;0.47;0.30;;;;;;;12.17;79.85;100486.72;10377878;28;20066;-62
2023/01/04 22:31:12;;;;;;;0.38;0.30;;;;;;;12.22;79.28;100484.28;10379067;28;20081;-63
2023/01/04 22:36:15;;;;;;;1.10;0.20;;;;;;;12.26;79.43;100493.69;10370738;28;20058;-64
2023/01/04 22:41:26;;;;;;;1.05;0.30;;;;;;;12.34;79.00;100490.06;10379881;28;20080;-64
2023/01/04 22:46:29;;;;;;;0.55;0.30;;;;;;;12.37;78.60;100485.16;10376476;28;20064;-64
2023/01/04 22:51:31;;;;;;;0.63;0.20;;;;;;;12.40;79.02;100497.41;10382602;28;20042;-62
2023/01/04 22:56:32;;;;;;;0.80;0.30;;;;;;;12.41;79.12;100497.22;10363146;28;20045;-63
2023/01/04 23:01:34;;;;;;;0.73;0.40;;;;;;;12.48;78.98;100475.78;10391707;28;20050;-61
2023/01/04 23:06:35;;;;;;;0.70;0.60;;;;;;;12.48;79.05;100473.91;10378579;28;20084;-64
2023/01/04 23:11:37;;;;;;;1.45;0.70;;;;;;;12.56;79.20;100485.59;10353749;28;20101;-65
2023/01/04 23:16:38;;;;;;;0.80;0.55;;;;;;;12.73;78.28;100481.72;10361873;28;20050;-61
2023/01/04 23:21:41;;;;;;;0.90;0.47;;;;;;;12.77;78.50;100469.53;10378001;28;20046;-63
2023/01/04 23:26:42;;;;;;;1.75;0.60;;;;;;;12.79;78.23;100472.88;10379867;28;20362;-64
2023/01/04 23:31:44;;;;;;;0.90;0.50;;;;;;;12.80;78.76;100490.75;10384135;28;20046;-62
2023/01/04 23:36:45;;;;;;;1.08;0.63;;;;;;;12.76;78.51;100481.34;10391094;28;20096;-63
2023/01/04 23:41:47;;;;;;;3.92;0.88;;;;;;;12.81;78.74;100461.91;10384547;28;20042;-66
2023/01/04 23:47:00;;;;;;;2.97;1.30;;;;;;;12.67;78.82;100450.09;10394372;28;20046;-66
2023/01/04 23:52:03;;;;;;;2.67;1.30;;;;;;;12.68;78.73;100446.38;10371272;28;20060;-65
2023/01/04 23:57:04;;;;;;;4.72;0.88;;;;;;;12.62;79.26;100452.53;10384895;28;20554;-63
